QTR4W OTHH-OOMS
Flight info
| Callsign | QTR4W |
|---|---|
| Flight time | 1h 5m |
| Altitude | 33000 |
| Route | BUNDU B415 RURAL N685 LAKLU G216 MCT |
| Aircraft | B789/H-SDE1E2E3FGHIJ2J3J4J5M1RWXY/LB1D1 |
Departure
| Time | 2026-05-03 21:55 |
|---|---|
| Airport | Hamad International Airport (OTHH) |
Arrival
| Time | 2026-05-03 23:01 |
|---|---|
| Airport | Muscat International Airport (OOMS) |
| Time | Latitude | Longitude | Altitude | Speed | Heading |
|---|---|---|---|---|---|
| 2026-05-03 21:28 | 25.26252 | 51.61866 | 28 ft | 0 kts | 304° |
| 2026-05-03 21:44 | 25.26248 | 51.61872 | 27 ft | 2 kts | 303° |
| 2026-05-03 21:44 | 25.26239 | 51.61887 | 27 ft | 2 kts | 305° |
| 2026-05-03 21:44 | 25.26229 | 51.61902 | 26 ft | 2 kts | 314° |
| 2026-05-03 21:44 | 25.26215 | 51.61912 | 26 ft | 2 kts | 346° |
| 2026-05-03 21:45 | 25.26199 | 51.61912 | 26 ft | 2 kts | 12° |
| 2026-05-03 21:45 | 25.26183 | 51.61905 | 27 ft | 2 kts | 37° |
| 2026-05-03 21:45 | 25.26171 | 51.61892 | 26 ft | 2 kts | 50° |
| 2026-05-03 21:45 | 25.26161 | 51.61878 | 24 ft | 2 kts | 54° |
| 2026-05-03 21:46 | 25.26152 | 51.61863 | 26 ft | 2 kts | 58° |
| 2026-05-03 21:46 | 25.26144 | 51.61847 | 24 ft | 2 kts | 62° |
| 2026-05-03 21:46 | 25.26138 | 51.61834 | 26 ft | 1 kts | 66° |
| 2026-05-03 21:46 | 25.26137 | 51.61831 | 26 ft | 0 kts | 67° |
| 2026-05-03 21:49 | 25.26139 | 51.61835 | 26 ft | 1 kts | 68° |
| 2026-05-03 21:49 | 25.26142 | 51.61847 | 24 ft | 2 kts | 70° |
| 2026-05-03 21:49 | 25.26149 | 51.61867 | 26 ft | 4 kts | 70° |
| 2026-05-03 21:50 | 25.26159 | 51.61897 | 27 ft | 5 kts | 69° |
| 2026-05-03 21:50 | 25.26173 | 51.61936 | 28 ft | 6 kts | 69° |
| 2026-05-03 21:50 | 25.26189 | 51.61981 | 28 ft | 7 kts | 68° |
| 2026-05-03 21:50 | 25.26209 | 51.62034 | 28 ft | 8 kts | 68° |
| 2026-05-03 21:51 | 25.26203 | 51.62085 | 28 ft | 6 kts | 129° |
| 2026-05-03 21:51 | 25.26165 | 51.62110 | 28 ft | 7 kts | 157° |
| 2026-05-03 21:51 | 25.26114 | 51.62133 | 28 ft | 9 kts | 158° |
| 2026-05-03 21:51 | 25.26053 | 51.62160 | 28 ft | 10 kts | 158° |
| 2026-05-03 21:52 | 25.25985 | 51.62190 | 28 ft | 11 kts | 155° |
| 2026-05-03 21:52 | 25.25966 | 51.62249 | 28 ft | 7 kts | 73° |
| 2026-05-03 21:52 | 25.25983 | 51.62305 | 28 ft | 8 kts | 69° |
| 2026-05-03 21:52 | 25.26004 | 51.62365 | 28 ft | 9 kts | 68° |
| 2026-05-03 21:53 | 25.26029 | 51.62432 | 28 ft | 10 kts | 68° |
| 2026-05-03 21:53 | 25.26054 | 51.62468 | 28 ft | 2 kts | 11° |
| 2026-05-03 21:53 | 25.26065 | 51.62466 | 27 ft | 1 kts | 344° |
| 2026-05-03 21:53 | 25.26072 | 51.62463 | 27 ft | 2 kts | 342° |
| 2026-05-03 21:54 | 25.26087 | 51.62458 | 28 ft | 2 kts | 340° |
| 2026-05-03 21:54 | 25.26137 | 51.62436 | 28 ft | 26 kts | 338° |
| 2026-05-03 21:54 | 25.26504 | 51.62273 | 28 ft | 88 kts | 338° |
| 2026-05-03 21:54 | 25.27246 | 51.61945 | 28 ft | 143 kts | 338° |
| 2026-05-03 21:55 | 25.28266 | 51.61483 | 449 ft | 162 kts | 335° |
| 2026-05-03 21:55 | 25.29292 | 51.61001 | 1272 ft | 163 kts | 337° |
| 2026-05-03 21:55 | 25.30372 | 51.60456 | 1851 ft | 184 kts | 338° |
| 2026-05-03 21:55 | 25.31717 | 51.59945 | 2326 ft | 222 kts | 341° |
| 2026-05-03 21:56 | 25.33186 | 51.59330 | 3396 ft | 226 kts | 339° |
| 2026-05-03 21:56 | 25.34799 | 51.59090 | 3977 ft | 249 kts | 8° |
| 2026-05-03 21:56 | 25.36299 | 51.59934 | 3980 ft | 239 kts | 38° |
| 2026-05-03 21:56 | 25.37280 | 51.61380 | 3983 ft | 238 kts | 63° |
| 2026-05-03 21:57 | 25.37603 | 51.63171 | 3963 ft | 242 kts | 90° |
| 2026-05-03 21:57 | 25.37402 | 51.65029 | 3964 ft | 244 kts | 95° |
| 2026-05-03 21:57 | 25.37175 | 51.66903 | 4109 ft | 251 kts | 94° |
| 2026-05-03 21:57 | 25.36990 | 51.68770 | 5403 ft | 245 kts | 94° |
| 2026-05-03 21:58 | 25.36767 | 51.70679 | 6359 ft | 259 kts | 102° |
| 2026-05-03 21:58 | 25.36314 | 51.72706 | 7056 ft | 279 kts | 100° |
| 2026-05-03 21:58 | 25.35942 | 51.74787 | 8114 ft | 285 kts | 100° |
| 2026-05-03 21:58 | 25.35514 | 51.77039 | 8714 ft | 312 kts | 102° |
| 2026-05-03 21:59 | 25.35031 | 51.79408 | 9732 ft | 318 kts | 102° |
| 2026-05-03 21:59 | 25.34541 | 51.81836 | 10527 ft | 334 kts | 101° |
| 2026-05-03 21:59 | 25.34037 | 51.84400 | 10939 ft | 361 kts | 101° |
| 2026-05-03 21:59 | 25.33490 | 51.87170 | 11288 ft | 388 kts | 101° |
| 2026-05-03 22:00 | 25.32901 | 51.90116 | 12205 ft | 391 kts | 101° |
| 2026-05-03 22:00 | 25.32312 | 51.93051 | 13298 ft | 393 kts | 101° |
| 2026-05-03 22:00 | 25.31719 | 51.96038 | 13912 ft | 409 kts | 101° |
| 2026-05-03 22:00 | 25.31092 | 51.99196 | 14206 ft | 428 kts | 101° |
| 2026-05-03 22:01 | 25.30441 | 52.02432 | 14876 ft | 436 kts | 101° |
| 2026-05-03 22:01 | 25.29779 | 52.05722 | 15280 ft | 435 kts | 101° |
| 2026-05-03 22:01 | 25.28919 | 52.08831 | 16844 ft | 414 kts | 112° |
| 2026-05-03 22:01 | 25.27501 | 52.11630 | 17658 ft | 423 kts | 127° |
| 2026-05-03 22:02 | 25.25676 | 52.14197 | 18376 ft | 428 kts | 128° |
| 2026-05-03 22:02 | 25.23817 | 52.16790 | 19108 ft | 432 kts | 129° |
| 2026-05-03 22:02 | 25.21940 | 52.19398 | 19826 ft | 436 kts | 129° |
| 2026-05-03 22:02 | 25.20028 | 52.22065 | 20152 ft | 451 kts | 129° |
| 2026-05-03 22:03 | 25.18038 | 52.24845 | 20155 ft | 472 kts | 129° |
| 2026-05-03 22:03 | 25.15975 | 52.27722 | 20639 ft | 478 kts | 129° |
| 2026-05-03 22:03 | 25.13902 | 52.30608 | 21225 ft | 481 kts | 129° |
| 2026-05-03 22:03 | 25.11814 | 52.33512 | 21772 ft | 485 kts | 129° |
| 2026-05-03 22:04 | 25.09710 | 52.36439 | 22314 ft | 489 kts | 129° |
| 2026-05-03 22:04 | 25.07585 | 52.39394 | 22827 ft | 492 kts | 129° |
| 2026-05-03 22:04 | 25.05442 | 52.42370 | 23330 ft | 496 kts | 129° |
| 2026-05-03 22:04 | 25.03290 | 52.45358 | 23729 ft | 500 kts | 129° |
| 2026-05-03 22:05 | 25.01265 | 52.48427 | 24077 ft | 504 kts | 121° |
| 2026-05-03 22:05 | 24.99780 | 52.51957 | 24435 ft | 509 kts | 109° |
| 2026-05-03 22:05 | 24.98671 | 52.55684 | 24748 ft | 513 kts | 108° |
| 2026-05-03 22:05 | 24.97568 | 52.59442 | 25103 ft | 517 kts | 108° |
| 2026-05-03 22:06 | 24.96450 | 52.63230 | 25429 ft | 521 kts | 108° |
| 2026-05-03 22:06 | 24.95311 | 52.67031 | 25747 ft | 525 kts | 108° |
| 2026-05-03 22:06 | 24.94313 | 52.70912 | 26018 ft | 528 kts | 104° |
| 2026-05-03 22:06 | 24.93371 | 52.74832 | 26341 ft | 531 kts | 105° |
| 2026-05-03 22:07 | 24.92394 | 52.78772 | 26632 ft | 535 kts | 105° |
| 2026-05-03 22:07 | 24.91747 | 52.81399 | 26835 ft | 537 kts | 105° |
| 2026-05-03 22:07 | 24.90468 | 52.86695 | 27214 ft | 541 kts | 105° |
| 2026-05-03 22:07 | 24.89494 | 52.90715 | 27496 ft | 545 kts | 105° |
| 2026-05-03 22:08 | 24.88824 | 52.93445 | 27623 ft | 549 kts | 105° |
| 2026-05-03 22:08 | 24.87824 | 52.97507 | 27999 ft | 549 kts | 105° |
| 2026-05-03 22:08 | 24.86829 | 53.01577 | 28412 ft | 550 kts | 105° |
| 2026-05-03 22:08 | 24.85839 | 53.05632 | 28819 ft | 550 kts | 105° |
| 2026-05-03 22:09 | 24.84850 | 53.09664 | 29232 ft | 551 kts | 105° |
| 2026-05-03 22:09 | 24.83844 | 53.13747 | 29627 ft | 552 kts | 105° |
| 2026-05-03 22:09 | 24.82833 | 53.17860 | 30147 ft | 550 kts | 105° |
| 2026-05-03 22:10 | 24.80829 | 53.25991 | 30865 ft | 550 kts | 105° |
| 2026-05-03 22:10 | 24.79822 | 53.30063 | 31233 ft | 550 kts | 106° |
| 2026-05-03 22:10 | 24.78827 | 53.34088 | 31538 ft | 551 kts | 106° |
| 2026-05-03 22:10 | 24.77819 | 53.38164 | 31986 ft | 549 kts | 106° |
| 2026-05-03 22:11 | 24.76809 | 53.42231 | 32362 ft | 549 kts | 106° |
| 2026-05-03 22:11 | 24.75802 | 53.46274 | 32726 ft | 549 kts | 106° |
| 2026-05-03 22:11 | 24.74787 | 53.50357 | 32802 ft | 555 kts | 106° |
| 2026-05-03 22:12 | 24.72751 | 53.58531 | 32800 ft | 550 kts | 106° |
| 2026-05-03 22:12 | 24.70722 | 53.66647 | 32799 ft | 549 kts | 106° |
| 2026-05-03 22:13 | 24.68697 | 53.74735 | 32796 ft | 549 kts | 106° |
| 2026-05-03 22:13 | 24.66656 | 53.82860 | 32782 ft | 549 kts | 106° |
| 2026-05-03 22:14 | 24.64620 | 53.90951 | 32791 ft | 548 kts | 106° |
| 2026-05-03 22:14 | 24.62756 | 53.99067 | 32798 ft | 551 kts | 104° |
| 2026-05-03 22:15 | 24.60887 | 54.07233 | 32785 ft | 550 kts | 104° |
| 2026-05-03 22:15 | 24.59100 | 54.15432 | 32778 ft | 550 kts | 104° |
| 2026-05-03 22:16 | 24.57256 | 54.23610 | 32723 ft | 551 kts | 104° |
| 2026-05-03 22:16 | 24.55442 | 54.31780 | 32756 ft | 552 kts | 104° |
| 2026-05-03 22:17 | 24.53832 | 54.39362 | 32770 ft | 551 kts | 101° |
| 2026-05-03 22:17 | 24.52286 | 54.47616 | 32770 ft | 552 kts | 102° |
| 2026-05-03 22:18 | 24.49890 | 54.55598 | 32799 ft | 550 kts | 121° |
| 2026-05-03 22:18 | 24.45973 | 54.62794 | 32782 ft | 549 kts | 123° |
| 2026-05-03 22:19 | 24.41910 | 54.69904 | 32778 ft | 548 kts | 124° |
| 2026-05-03 22:19 | 24.37863 | 54.77018 | 32782 ft | 549 kts | 124° |
| 2026-05-03 22:20 | 24.33747 | 54.84053 | 32786 ft | 549 kts | 124° |
| 2026-05-03 22:20 | 24.29701 | 54.91054 | 32783 ft | 549 kts | 124° |
| 2026-05-03 22:21 | 24.25639 | 54.98029 | 32797 ft | 549 kts | 124° |
| 2026-05-03 22:21 | 24.21529 | 55.05090 | 32797 ft | 549 kts | 124° |
| 2026-05-03 22:22 | 24.17426 | 55.12132 | 32800 ft | 549 kts | 124° |
| 2026-05-03 22:22 | 24.13310 | 55.19183 | 32806 ft | 549 kts | 124° |
| 2026-05-03 22:23 | 24.09196 | 55.26222 | 32811 ft | 549 kts | 124° |
| 2026-05-03 22:23 | 24.05217 | 55.33304 | 32836 ft | 550 kts | 115° |
| 2026-05-03 22:24 | 24.02351 | 55.41077 | 32830 ft | 552 kts | 112° |
| 2026-05-03 22:24 | 23.99547 | 55.48886 | 32837 ft | 551 kts | 112° |
| 2026-05-03 22:25 | 23.96710 | 55.56697 | 32836 ft | 551 kts | 114° |
| 2026-05-03 22:25 | 23.93292 | 55.64205 | 32843 ft | 552 kts | 118° |
| 2026-05-03 22:26 | 23.89777 | 55.71694 | 32842 ft | 553 kts | 118° |
| 2026-05-03 22:26 | 23.86286 | 55.79188 | 32844 ft | 553 kts | 118° |
| 2026-05-03 22:27 | 23.82778 | 55.86654 | 32845 ft | 553 kts | 118° |
| 2026-05-03 22:27 | 23.79274 | 55.94139 | 32860 ft | 553 kts | 118° |
| 2026-05-03 22:28 | 23.75780 | 56.01565 | 32863 ft | 553 kts | 118° |
| 2026-05-03 22:28 | 23.72268 | 56.09034 | 32860 ft | 553 kts | 118° |
| 2026-05-03 22:29 | 23.68749 | 56.16494 | 32871 ft | 553 kts | 118° |
| 2026-05-03 22:29 | 23.65204 | 56.24006 | 32874 ft | 553 kts | 118° |
| 2026-05-03 22:30 | 23.61676 | 56.31465 | 32832 ft | 553 kts | 118° |
| 2026-05-03 22:30 | 23.58193 | 56.38821 | 32861 ft | 543 kts | 118° |
| 2026-05-03 22:31 | 23.54733 | 56.46113 | 32864 ft | 545 kts | 118° |
| 2026-05-03 22:31 | 23.51253 | 56.53461 | 32863 ft | 545 kts | 118° |
| 2026-05-03 22:32 | 23.47768 | 56.60800 | 32866 ft | 545 kts | 118° |
| 2026-05-03 22:32 | 23.44277 | 56.68146 | 32875 ft | 545 kts | 118° |
| 2026-05-03 22:33 | 23.40788 | 56.75474 | 32880 ft | 545 kts | 118° |
| 2026-05-03 22:33 | 23.37314 | 56.82815 | 32889 ft | 544 kts | 114° |
| 2026-05-03 22:33 | 23.36061 | 56.86690 | 32918 ft | 545 kts | 102° |
| 2026-05-03 22:34 | 23.35470 | 56.90758 | 32917 ft | 544 kts | 91° |
| 2026-05-03 22:34 | 23.35552 | 56.94851 | 32924 ft | 541 kts | 80° |
| 2026-05-03 22:34 | 23.36201 | 56.98879 | 32902 ft | 540 kts | 76° |
| 2026-05-03 22:35 | 23.37671 | 57.06887 | 32896 ft | 539 kts | 76° |
| 2026-05-03 22:35 | 23.39148 | 57.14881 | 32891 ft | 539 kts | 76° |
| 2026-05-03 22:36 | 23.40601 | 57.22845 | 32880 ft | 539 kts | 76° |
| 2026-05-03 22:36 | 23.42055 | 57.30788 | 32852 ft | 527 kts | 76° |
| 2026-05-03 22:37 | 23.43455 | 57.38491 | 32826 ft | 509 kts | 76° |
| 2026-05-03 22:37 | 23.44815 | 57.45956 | 32581 ft | 500 kts | 76° |
| 2026-05-03 22:37 | 23.45487 | 57.49668 | 32284 ft | 500 kts | 75° |
| 2026-05-03 22:38 | 23.46158 | 57.53376 | 31982 ft | 500 kts | 75° |
| 2026-05-03 22:38 | 23.46831 | 57.57102 | 31670 ft | 500 kts | 75° |
| 2026-05-03 22:38 | 23.47503 | 57.60820 | 31369 ft | 500 kts | 75° |
| 2026-05-03 22:38 | 23.48173 | 57.64538 | 31078 ft | 500 kts | 75° |
| 2026-05-03 22:39 | 23.48842 | 57.68256 | 30642 ft | 500 kts | 75° |
| 2026-05-03 22:39 | 23.49509 | 57.71969 | 30192 ft | 497 kts | 75° |
| 2026-05-03 22:39 | 23.50168 | 57.75647 | 29714 ft | 494 kts | 75° |
| 2026-05-03 22:39 | 23.50825 | 57.79316 | 29179 ft | 490 kts | 75° |
| 2026-05-03 22:40 | 23.51478 | 57.82957 | 28666 ft | 488 kts | 75° |
| 2026-05-03 22:40 | 23.52121 | 57.86555 | 28149 ft | 488 kts | 75° |
| 2026-05-03 22:40 | 23.52770 | 57.90190 | 27648 ft | 488 kts | 75° |
| 2026-05-03 22:40 | 23.53416 | 57.93819 | 27132 ft | 489 kts | 75° |
| 2026-05-03 22:41 | 23.54065 | 57.97464 | 26661 ft | 490 kts | 75° |
| 2026-05-03 22:41 | 23.54710 | 58.01097 | 26185 ft | 490 kts | 75° |
| 2026-05-03 22:41 | 23.55356 | 58.04742 | 25712 ft | 487 kts | 75° |
| 2026-05-03 22:41 | 23.55996 | 58.08352 | 25248 ft | 483 kts | 75° |
| 2026-05-03 22:42 | 23.56627 | 58.11924 | 24790 ft | 478 kts | 75° |
| 2026-05-03 22:42 | 23.57253 | 58.15466 | 24335 ft | 470 kts | 75° |
| 2026-05-03 22:42 | 23.57659 | 58.17770 | 24037 ft | 465 kts | 75° |
| 2026-05-03 22:42 | 23.58265 | 58.21205 | 23594 ft | 457 kts | 75° |
| 2026-05-03 22:43 | 23.58876 | 58.24615 | 23123 ft | 448 kts | 72° |
| 2026-05-03 22:43 | 23.59848 | 58.27728 | 22620 ft | 434 kts | 61° |
| 2026-05-03 22:43 | 23.61103 | 58.30699 | 21971 ft | 429 kts | 60° |
| 2026-05-03 22:43 | 23.62362 | 58.33632 | 21343 ft | 425 kts | 60° |
| 2026-05-03 22:44 | 23.63612 | 58.36542 | 20731 ft | 421 kts | 61° |
| 2026-05-03 22:44 | 23.64838 | 58.39424 | 20145 ft | 417 kts | 61° |
| 2026-05-03 22:44 | 23.66144 | 58.42217 | 19576 ft | 408 kts | 51° |
| 2026-05-03 22:44 | 23.68008 | 58.44460 | 19062 ft | 393 kts | 33° |
| 2026-05-03 22:45 | 23.70300 | 58.46007 | 18530 ft | 383 kts | 22° |
| 2026-05-03 22:45 | 23.72755 | 58.47040 | 17990 ft | 375 kts | 12° |
| 2026-05-03 22:45 | 23.75289 | 58.47558 | 17378 ft | 368 kts | 2° |
| 2026-05-03 22:45 | 23.77823 | 58.47562 | 16767 ft | 362 kts | 352° |
| 2026-05-03 22:46 | 23.80278 | 58.47069 | 16191 ft | 357 kts | 342° |
| 2026-05-03 22:46 | 23.82586 | 58.46109 | 15604 ft | 353 kts | 333° |
| 2026-05-03 22:46 | 23.84675 | 58.44721 | 15044 ft | 351 kts | 323° |
| 2026-05-03 22:46 | 23.86492 | 58.42952 | 14478 ft | 348 kts | 313° |
| 2026-05-03 22:47 | 23.87966 | 58.40869 | 13926 ft | 346 kts | 300° |
| 2026-05-03 22:47 | 23.88768 | 58.38405 | 13381 ft | 346 kts | 281° |
| 2026-05-03 22:47 | 23.88806 | 58.35793 | 12800 ft | 346 kts | 262° |
| 2026-05-03 22:47 | 23.88098 | 58.33345 | 12213 ft | 333 kts | 244° |
| 2026-05-03 22:48 | 23.86785 | 58.31325 | 11541 ft | 324 kts | 226° |
| 2026-05-03 22:48 | 23.85002 | 58.29856 | 10840 ft | 318 kts | 209° |
| 2026-05-03 22:48 | 23.82939 | 58.29046 | 10165 ft | 314 kts | 192° |
| 2026-05-03 22:48 | 23.80772 | 58.28740 | 9488 ft | 317 kts | 189° |
| 2026-05-03 22:49 | 23.78563 | 58.28454 | 8729 ft | 323 kts | 188° |
| 2026-05-03 22:49 | 23.76314 | 58.28173 | 8032 ft | 327 kts | 189° |
| 2026-05-03 22:49 | 23.74144 | 58.27554 | 7367 ft | 321 kts | 213° |
| 2026-05-03 22:49 | 23.72553 | 58.25932 | 6769 ft | 311 kts | 244° |
| 2026-05-03 22:50 | 23.71939 | 58.23747 | 6181 ft | 300 kts | 273° |
| 2026-05-03 22:50 | 23.72427 | 58.21603 | 5566 ft | 291 kts | 303° |
| 2026-05-03 22:50 | 23.73862 | 58.20133 | 5180 ft | 281 kts | 335° |
| 2026-05-03 22:50 | 23.75733 | 58.19838 | 5010 ft | 272 kts | 7° |
| 2026-05-03 22:51 | 23.77379 | 58.20771 | 4838 ft | 272 kts | 42° |
| 2026-05-03 22:51 | 23.78228 | 58.22594 | 4638 ft | 275 kts | 76° |
| 2026-05-03 22:51 | 23.78269 | 58.24670 | 4397 ft | 271 kts | 89° |
| 2026-05-03 22:51 | 23.78103 | 58.26698 | 4164 ft | 265 kts | 91° |
| 2026-05-03 22:52 | 23.77903 | 58.28662 | 3952 ft | 255 kts | 92° |
| 2026-05-03 22:52 | 23.77708 | 58.30575 | 3730 ft | 251 kts | 92° |
| 2026-05-03 22:52 | 23.77524 | 58.32465 | 3499 ft | 249 kts | 92° |
| 2026-05-03 22:52 | 23.77204 | 58.34327 | 3173 ft | 256 kts | 107° |
| 2026-05-03 22:53 | 23.76133 | 58.35848 | 2981 ft | 250 kts | 141° |
| 2026-05-03 22:53 | 23.74775 | 58.37026 | 2997 ft | 250 kts | 140° |
| 2026-05-03 22:53 | 23.73559 | 58.38379 | 2919 ft | 249 kts | 131° |
| 2026-05-03 22:53 | 23.72487 | 58.39813 | 2763 ft | 240 kts | 128° |
| 2026-05-03 22:54 | 23.71438 | 58.41195 | 2609 ft | 233 kts | 130° |
| 2026-05-03 22:54 | 23.70391 | 58.42512 | 2465 ft | 226 kts | 131° |
| 2026-05-03 22:54 | 23.69365 | 58.43789 | 2293 ft | 223 kts | 131° |
| 2026-05-03 22:54 | 23.68366 | 58.45047 | 2244 ft | 214 kts | 131° |
| 2026-05-03 22:55 | 23.67401 | 58.46264 | 2060 ft | 214 kts | 131° |
| 2026-05-03 22:55 | 23.66432 | 58.47486 | 2010 ft | 211 kts | 131° |
| 2026-05-03 22:55 | 23.65274 | 58.48443 | 1956 ft | 210 kts | 167° |
| 2026-05-03 22:55 | 23.63873 | 58.48454 | 1982 ft | 198 kts | 202° |
| 2026-05-03 22:56 | 23.62763 | 58.47654 | 1988 ft | 190 kts | 234° |
| 2026-05-03 22:56 | 23.62321 | 58.46369 | 1990 ft | 175 kts | 265° |
| 2026-05-03 22:56 | 23.62161 | 58.45107 | 2009 ft | 164 kts | 268° |
| 2026-05-03 22:56 | 23.62045 | 58.43887 | 2009 ft | 161 kts | 268° |
| 2026-05-03 22:57 | 23.61946 | 58.42684 | 2008 ft | 162 kts | 269° |
| 2026-05-03 22:57 | 23.61849 | 58.41496 | 1998 ft | 149 kts | 269° |
| 2026-05-03 22:57 | 23.61756 | 58.40364 | 1858 ft | 147 kts | 269° |
| 2026-05-03 22:57 | 23.61670 | 58.39286 | 1678 ft | 142 kts | 268° |
| 2026-05-03 22:58 | 23.61584 | 58.38216 | 1507 ft | 142 kts | 268° |
| 2026-05-03 22:58 | 23.61498 | 58.37134 | 1331 ft | 144 kts | 268° |
| 2026-05-03 22:58 | 23.61413 | 58.36043 | 1154 ft | 145 kts | 267° |
| 2026-05-03 22:58 | 23.61324 | 58.34949 | 986 ft | 144 kts | 266° |
| 2026-05-03 22:59 | 23.61238 | 58.33854 | 799 ft | 146 kts | 265° |
| 2026-05-03 22:59 | 23.61150 | 58.32757 | 632 ft | 144 kts | 265° |
| 2026-05-03 22:59 | 23.61063 | 58.31672 | 439 ft | 146 kts | 265° |
| 2026-05-03 22:59 | 23.60964 | 58.30593 | 273 ft | 144 kts | 265° |
| 2026-05-03 23:00 | 23.60883 | 58.29508 | 67 ft | 144 kts | 265° |
| 2026-05-03 23:00 | 23.60812 | 58.28526 | 40 ft | 109 kts | 265° |
| 2026-05-03 23:00 | 23.60761 | 58.27877 | 39 ft | 68 kts | 265° |
| 2026-05-03 23:00 | 23.60722 | 58.27407 | 40 ft | 56 kts | 265° |
| 2026-05-03 23:01 | 23.60666 | 58.27068 | 42 ft | 29 kts | 245° |
| 2026-05-03 23:01 | 23.60560 | 58.26897 | 40 ft | 26 kts | 235° |
| 2026-05-03 23:01 | 23.60479 | 58.26788 | 40 ft | 16 kts | 211° |
| 2026-05-03 23:01 | 23.60414 | 58.26823 | 40 ft | 11 kts | 101° |
| 2026-05-03 23:02 | 23.60420 | 58.26902 | 40 ft | 11 kts | 84° |
| 2026-05-03 23:02 | 23.60427 | 58.26987 | 40 ft | 12 kts | 85° |
| 2026-05-03 23:02 | 23.60434 | 58.27081 | 40 ft | 13 kts | 85° |
| 2026-05-03 23:02 | 23.60444 | 58.27185 | 40 ft | 14 kts | 84° |
| 2026-05-03 23:03 | 23.60451 | 58.27296 | 39 ft | 15 kts | 85° |
| 2026-05-03 23:03 | 23.60460 | 58.27413 | 39 ft | 16 kts | 84° |
| 2026-05-03 23:03 | 23.60470 | 58.27537 | 39 ft | 17 kts | 85° |
| 2026-05-03 23:03 | 23.60432 | 58.27647 | 38 ft | 15 kts | 131° |
| 2026-05-03 23:04 | 23.60360 | 58.27738 | 39 ft | 16 kts | 130° |
| 2026-05-03 23:04 | 23.60286 | 58.27834 | 39 ft | 17 kts | 130° |
| 2026-05-03 23:04 | 23.60233 | 58.27944 | 39 ft | 16 kts | 89° |
| 2026-05-03 23:04 | 23.60243 | 58.28063 | 39 ft | 16 kts | 84° |
| 2026-05-03 23:05 | 23.60252 | 58.28179 | 39 ft | 11 kts | 85° |
| 2026-05-03 23:05 | 23.60250 | 58.28228 | 39 ft | 3 kts | 124° |
| 2026-05-03 23:05 | 23.60233 | 58.28237 | 39 ft | 3 kts | 160° |
| 2026-05-03 23:05 | 23.60215 | 58.28241 | 39 ft | 3 kts | 167° |
| 2026-05-03 23:06 | 23.60188 | 58.28246 | 39 ft | 4 kts | 173° |
| 2026-05-03 23:06 | 23.60167 | 58.28248 | 39 ft | 3 kts | 175° |
| 2026-05-03 23:06 | 23.60148 | 58.28249 | 39 ft | 1 kts | 175° |
| 2026-05-03 23:06 | 23.60148 | 58.28250 | 39 ft | 0 kts | 175° |